Butts AAF (Fort Carson) Air Field
KFCS : now visible

Airfield :











YOU CAN JOIN US ON...

 
LOGIN :

Register | Disclaimer

   EN    FR    IT 

 









Legend :    VFR   Marginal VFR   IFR   Intensive IFR   Very Intensive IFR
Visi :
Ceiling :
>= 8 km
>= 3000ft
5 to 8 km
1000 to 3000 ft
1500m to 5 km
500 to 1000 ft
800 to 1500m
200 to 500 ft
< 800m
< 200 ft
Symbols :   Thunderstorms  Fog  Heavy snow  Heavy precipitations  Wind > 20 kt






- Airport Elevation : 5838 ft


KFCS - Butts AAF (Fort Carson) Air Field

CURRENT METAR :
  • 281158Z AUTO 16004KT 10SM FEW160 M01/M04 A2973 RMK AO2 SLP092 60000 7//// T10061038 10017 21012 53010 $

EXPIRED METARs :
  • 281058Z AUTO 15007KT 10SM CLR 00/M03 A2971 RMK AO2 SLP063 T10011035 $
  • 280958Z AUTO 28009KT 10SM CLR 01/M06 A2969 RMK AO2 SLP045 T00051057 $

TAF TAF KFCS
Valid from the 28 at 07:00 until the 29 at 11:00 UTC


280745Z 2807/2911 35012KT 9999 FEW045 QNH2964INS
BECMG 2808/2809 34006KT 9000 -SN BKN030 QNH2965INS
BECMG 2818/2819 32020G25KT 9999 NSW SCT090 QNH2984INS
BECMG 2821/2822 30010G15KT 9999 FEW085 QNH2984INS
BECMG 2901/2902 VRB06KT 9999 BKN075 QNH2990INS TX08/2823Z TNM02/2911Z



MET'MAP, your aeronautical weather chart ! - Copyright ORBIFLY December 2007 - Disclaimer

ORBIFLY MET'MAP TEAM :

Programming & Development : Alexandra Zaïnal
Concept & original design : Baudouin d'Aumeries
Assistance for programming : Marc-Olivier Méhu
Technical & hardware support : Manuel Goepfert

Contact : metmap@orbifly.com




SOURCES & CREDITS :

   NOAA       Earth
Advisory